Grethel, Kentucky
Current Conditions -  °F | °C
As of 11:15 AM on Monday 24 Nov 2014 (Local Time) from KPBX Reporting Station
Broken Clouds Broken Clouds  
Wind Chill: 67°   Ceiling: 6500
Heat Index: 67°   Visibility: 10mi
Dew Point: 46°   Wind: 9mph
Humidity: 47%   Direction: 200°SSW
Pressure: 29.6"   Gusts: 26mph
Location:  37.49°N, 82.65°W
Report Text: KPBX 241615Z AUTO 20008G23KT 160V250 10SM SCT055 BKN065 19/08 A2960 RMK AO2 T01920077
Loading
Personal Weather Stations






























Interactive Weather Map New forecast layout! Learn more

10-Day Weather Forecast

Advertisements
Track Severe Weather on mobile